Time;durP1;ratioP1;P1;durP2;ratioP2;P2;SDS_P1;SDS_P2;PMS_P1;PMS_P2;Temp;Humidity;BMP_temperature;BMP_pressure;BME280_temperature;BME280_humidity;BME280_pressure;Samples;Min_cycle;Max_cycle;Signal;HPM_P1;HPM_P2
2022/10/23 00:03:21;;;;;;;6.77;4.37;;;15.10;45.90;;;;;;10366519;28;20229;-69
2022/10/23 00:08:24;;;;;;;5.67;3.93;;;15.10;45.80;;;;;;10371358;28;20288;-69
2022/10/23 00:13:28;;;;;;;4.53;3.83;;;15.10;45.90;;;;;;10370782;28;21046;-71
2022/10/23 00:18:32;;;;;;;4.93;3.73;;;15.10;45.90;;;;;;10372725;28;20295;-71
2022/10/23 00:23:35;;;;;;;3.67;3.43;;;15.00;45.80;;;;;;10382073;28;20230;-69
2022/10/23 00:28:40;;;;;;;3.70;3.40;;;15.00;45.80;;;;;;10376052;28;20238;-71
2022/10/23 00:33:43;;;;;;;3.97;3.60;;;15.00;45.90;;;;;;10378774;28;20692;-69
2022/10/23 00:38:47;;;;;;;3.43;3.13;;;15.00;45.60;;;;;;10377054;28;20234;-71
2022/10/23 00:44:04;;;;;;;3.40;3.13;;;15.00;45.70;;;;;;10379200;28;20983;-71
2022/10/23 00:49:09;;;;;;;3.40;3.10;;;14.90;45.70;;;;;;10380795;28;20233;-69
2022/10/23 00:54:19;;;;;;;4.00;3.70;;;14.90;45.50;;;;;;10371931;28;20228;-69
2022/10/23 00:59:29;;;;;;;4.83;3.90;;;14.80;45.40;;;;;;10378225;28;20244;-69
2022/10/23 01:04:33;;;;;;;4.57;3.53;;;14.80;45.40;;;;;;10379434;28;20229;-69
2022/10/23 01:09:39;;;;;;;3.80;3.50;;;14.70;45.30;;;;;;10381209;28;20246;-69
2022/10/23 01:14:53;;;;;;;4.17;3.60;;;14.60;45.30;;;;;;10373568;28;20249;-71
2022/10/23 01:20:11;;;;;;;4.50;4.10;;;14.60;45.30;;;;;;10375712;28;20715;-69
2022/10/23 01:25:23;;;;;;;7.57;5.03;;;14.50;45.30;;;;;;10378361;28;20222;-69
2022/10/23 01:30:29;;;;;;;4.07;3.67;;;14.50;45.10;;;;;;10377602;28;21974;-69
2022/10/23 01:35:37;;;;;;;6.43;4.70;;;14.50;45.30;;;;;;10375345;28;20230;-69
2022/10/23 01:40:45;;;;;;;5.47;4.87;;;14.50;45.20;;;;;;10373616;28;20233;-69
2022/10/23 01:45:54;;;;;;;6.97;4.83;;;14.40;45.20;;;;;;10381232;28;20237;-69
2022/10/23 01:51:00;;;;;;;5.10;4.70;;;14.40;45.00;;;;;;10375654;28;20283;-69
2022/10/23 01:56:07;;;;;;;4.97;4.47;;;14.30;44.70;;;;;;10373097;28;20287;-69
2022/10/23 02:01:13;;;;;;;4.27;3.87;;;14.30;44.90;;;;;;10381335;28;20233;-69
2022/10/23 02:06:17;;;;;;;7.30;4.17;;;14.20;44.90;;;;;;10384227;28;20987;-69
2022/10/23 02:11:21;;;;;;;4.50;4.10;;;14.20;44.80;;;;;;10381677;28;20226;-69
2022/10/23 02:16:32;;;;;;;5.10;3.87;;;14.10;44.60;;;;;;10384546;28;20236;-69
2022/10/23 02:21:44;;;;;;;3.43;3.13;;;14.10;44.50;;;;;;10382636;28;20575;-69
2022/10/23 02:26:53;;;;;;;6.43;3.37;;;14.00;44.50;;;;;;10387168;28;20226;-69
2022/10/23 02:31:58;;;;;;;3.30;3.00;;;13.90;44.40;;;;;;10385101;28;20238;-70
2022/10/23 02:37:01;;;;;;;4.10;2.73;;;13.90;44.60;;;;;;10379766;28;20229;-69
2022/10/23 02:42:11;;;;;;;3.00;2.80;;;13.80;44.80;;;;;;10379749;28;20260;-69
2022/10/23 02:47:30;;;;;;;2.73;2.50;;;13.80;44.80;;;;;;10379240;28;20240;-69
2022/10/23 02:52:41;;;;;;;2.67;2.47;;;13.70;44.80;;;;;;10387281;28;20227;-69
2022/10/23 02:57:50;;;;;;;2.53;2.33;;;13.70;44.90;;;;;;10380972;28;20642;-69
2022/10/23 03:02:59;;;;;;;2.53;2.33;;;13.70;45.00;;;;;;10380975;28;20787;-69
2022/10/23 03:08:03;;;;;;;2.40;2.30;;;13.60;44.80;;;;;;10380851;28;20234;-70
2022/10/23 03:13:07;;;;;;;2.93;2.40;;;13.60;44.70;;;;;;10380309;28;20237;-69
2022/10/23 03:18:11;;;;;;;2.67;2.47;;;13.60;44.50;;;;;;10375288;28;20248;-69
2022/10/23 03:23:14;;;;;;;2.60;2.40;;;13.50;44.60;;;;;;10382859;28;20357;-71
2022/10/23 03:28:17;;;;;;;2.93;2.60;;;13.50;44.40;;;;;;10380032;28;20252;-69
2022/10/23 03:33:22;;;;;;;3.33;2.20;;;13.40;44.50;;;;;;10380412;28;20240;-71
2022/10/23 03:38:25;;;;;;;2.50;2.30;;;13.40;44.30;;;;;;10383473;28;20233;-71
2022/10/23 03:43:28;;;;;;;2.40;2.30;;;13.30;44.40;;;;;;10378477;28;20225;-69
2022/10/23 03:48:33;;;;;;;3.97;2.10;;;13.30;44.50;;;;;;10380811;28;20899;-69
2022/10/23 03:53:36;;;;;;;2.93;2.50;;;13.20;44.50;;;;;;10383894;28;20600;-69
2022/10/23 03:58:39;;;;;;;2.73;2.50;;;13.20;44.40;;;;;;10388884;28;20291;-69
2022/10/23 04:03:43;;;;;;;3.23;2.50;;;13.20;44.20;;;;;;10384858;28;20590;-69
2022/10/23 04:08:46;;;;;;;2.60;2.10;;;13.10;44.00;;;;;;10388747;28;20237;-69
2022/10/23 04:13:50;;;;;;;3.47;2.50;;;13.00;44.10;;;;;;10386110;28;20233;-70
2022/10/23 04:18:54;;;;;;;3.33;2.90;;;13.00;44.10;;;;;;10386866;28;20226;-69
2022/10/23 04:23:57;;;;;;;2.90;2.70;;;12.90;44.10;;;;;;10389446;28;20235;-69
2022/10/23 04:29:00;;;;;;;3.77;3.40;;;12.90;44.40;;;;;;10384144;28;20317;-71
2022/10/23 04:34:05;;;;;;;5.17;2.83;;;12.80;44.70;;;;;;10390523;28;20235;-69
2022/10/23 04:39:13;;;;;;;3.00;2.80;;;12.80;45.00;;;;;;10385861;28;20246;-69
2022/10/23 04:44:16;;;;;;;3.00;2.57;;;12.80;45.20;;;;;;10391228;28;20225;-69
2022/10/23 04:49:21;;;;;;;5.73;3.40;;;12.80;45.20;;;;;;10386943;28;20295;-69
2022/10/23 04:54:24;;;;;;;3.90;3.20;;;12.80;45.40;;;;;;10385347;28;20226;-69
2022/10/23 04:59:27;;;;;;;3.10;2.90;;;12.80;45.20;;;;;;10389185;28;20639;-71
2022/10/23 05:04:32;;;;;;;5.07;2.80;;;12.80;45.30;;;;;;10382301;28;20224;-69
2022/10/23 05:09:35;;;;;;;44.73;3.30;;;12.80;45.40;;;;;;10385130;28;20282;-69
2022/10/23 05:14:38;;;;;;;14.27;2.40;;;12.80;45.20;;;;;;10382674;28;20835;-69
2022/10/23 05:19:46;;;;;;;20.07;2.50;;;12.70;45.20;;;;;;10379985;28;20241;-69
2022/10/23 05:24:49;;;;;;;1.60;1.50;;;12.70;45.70;;;;;;10388679;28;20225;-69
2022/10/23 05:29:53;;;;;;;6.13;2.00;;;12.70;45.40;;;;;;10383112;28;20612;-69
2022/10/23 05:34:58;;;;;;;3.23;1.57;;;12.60;45.40;;;;;;10384579;28;20225;-69
2022/10/23 05:40:01;;;;;;;1.33;1.23;;;12.60;45.30;;;;;;10385345;28;20266;-69
2022/10/23 05:45:05;;;;;;;1.60;1.50;;;12.60;45.00;;;;;;10387200;28;20237;-69
2022/10/23 05:50:09;;;;;;;8.93;1.60;;;12.50;44.70;;;;;;10390436;28;20264;-72
2022/10/23 05:55:12;;;;;;;5.03;1.63;;;12.40;44.90;;;;;;10382974;28;20233;-69
2022/10/23 06:00:16;;;;;;;1.50;1.40;;;12.30;44.80;;;;;;10386262;28;20237;-71
2022/10/23 06:05:20;;;;;;;6.40;1.70;;;12.30;45.00;;;;;;10381171;28;20277;-69
2022/10/23 06:10:23;;;;;;;1.70;1.60;;;12.30;45.30;;;;;;10383082;28;20337;-69
2022/10/23 06:15:26;;;;;;;1.20;1.20;;;12.30;45.30;;;;;;10382887;28;20237;-69
2022/10/23 06:20:31;;;;;;;1.60;1.50;;;12.20;45.30;;;;;;10383584;28;20299;-69
2022/10/23 06:25:34;;;;;;;4.20;1.70;;;12.20;45.60;;;;;;10382220;28;20226;-68
2022/10/23 06:30:39;;;;;;;1.77;1.67;;;12.20;45.60;;;;;;10379510;28;20611;-69
2022/10/23 06:35:43;;;;;;;2.00;1.90;;;12.20;46.00;;;;;;10376223;28;20597;-69
2022/10/23 06:40:52;;;;;;;1.83;1.73;;;12.20;45.90;;;;;;10377281;28;20597;-69
2022/10/23 06:45:56;;;;;;;1.87;1.77;;;12.30;46.40;;;;;;10379364;28;20253;-69
2022/10/23 06:51:06;;;;;;;2.50;1.80;;;12.30;46.00;;;;;;10381221;28;20234;-69
2022/10/23 06:56:10;;;;;;;3.63;2.33;;;12.30;46.50;;;;;;10377700;28;20288;-69
2022/10/23 07:01:15;;;;;;;2.53;2.27;;;12.30;46.40;;;;;;10379093;28;20241;-69
2022/10/23 07:06:19;;;;;;;2.73;2.40;;;12.40;46.50;;;;;;10377424;28;20657;-69
2022/10/23 07:11:23;;;;;;;2.30;2.20;;;12.40;46.70;;;;;;10384302;28;20576;-69
2022/10/23 07:16:26;;;;;;;2.47;2.30;;;12.50;46.80;;;;;;10382871;28;20238;-69
2022/10/23 07:21:33;;;;;;;2.17;2.07;;;12.50;46.90;;;;;;10381040;28;20294;-71
2022/10/23 07:26:36;;;;;;;2.53;2.33;;;12.60;47.50;;;;;;10380496;28;20536;-69
2022/10/23 07:31:39;;;;;;;2.40;2.30;;;12.70;47.30;;;;;;10393362;28;20241;-71
2022/10/23 07:36:44;;;;;;;2.50;2.30;;;12.70;47.60;;;;;;10383116;28;20232;-69
2022/10/23 07:41:47;;;;;;;2.27;2.17;;;12.90;48.40;;;;;;10386430;28;20308;-69
2022/10/23 07:46:50;;;;;;;2.50;2.30;;;13.00;48.50;;;;;;10376201;28;20740;-68
2022/10/23 07:51:57;;;;;;;2.43;2.17;;;13.20;49.10;;;;;;10383464;28;20899;-69
2022/10/23 07:57:00;;;;;;;2.33;2.17;;;13.30;50.20;;;;;;10382641;28;20332;-71
2022/10/23 08:02:04;;;;;;;2.40;2.30;;;13.60;50.10;;;;;;10380136;28;20226;-69
2022/10/23 08:07:08;;;;;;;2.30;2.10;;;13.80;50.20;;;;;;10379449;28;20237;-69
2022/10/23 08:12:11;;;;;;;2.50;2.27;;;14.10;51.00;;;;;;10382420;28;20284;-69
2022/10/23 08:17:15;;;;;;;2.30;2.10;;;14.30;50.70;;;;;;10378645;28;20716;-71
2022/10/23 08:22:19;;;;;;;2.37;1.80;;;14.50;50.70;;;;;;10382515;28;20283;-69
2022/10/23 08:27:22;;;;;;;4.57;2.03;;;14.80;50.80;;;;;;10383611;28;20802;-69
2022/10/23 08:32:29;;;;;;;2.07;1.97;;;15.00;50.30;;;;;;10386464;28;20241;-69
2022/10/23 08:37:33;;;;;;;3.00;2.10;;;15.20;51.10;;;;;;10387467;28;20288;-68
2022/10/23 08:42:39;;;;;;;1.80;1.70;;;15.30;50.60;;;;;;10382735;28;20251;-71
2022/10/23 08:47:47;;;;;;;1.50;1.40;;;15.60;51.00;;;;;;10377724;28;20276;-68
2022/10/23 08:52:59;;;;;;;1.30;1.20;;;15.70;50.80;;;;;;10385625;28;20233;-69
2022/10/23 08:58:07;;;;;;;1.10;1.10;;;15.90;50.40;;;;;;10386618;28;20233;-70
2022/10/23 09:03:12;;;;;;;1.67;1.57;;;16.10;49.90;;;;;;10382099;28;20234;-68
2022/10/23 09:08:30;;;;;;;1.30;1.07;;;16.20;49.80;;;;;;10386895;28;20716;-68
2022/10/23 09:13:59;;;;;;;1.30;1.20;;;16.40;49.80;;;;;;10383990;28;20257;-69
2022/10/23 09:19:02;;;;;;;2.07;1.20;;;16.60;49.80;;;;;;10383172;28;20304;-69
2022/10/23 09:24:16;;;;;;;1.20;1.20;;;16.70;49.50;;;;;;10380748;28;20222;-68
2022/10/23 09:29:23;;;;;;;1.10;1.10;;;16.90;49.20;;;;;;10383669;28;20233;-68
2022/10/23 09:34:29;;;;;;;1.77;1.30;;;17.00;49.40;;;;;;10384801;28;20296;-68
2022/10/23 09:39:36;;;;;;;1.13;1.10;;;17.20;49.40;;;;;;10377233;28;20229;-68
2022/10/23 09:44:48;;;;;;;1.73;1.20;;;17.40;48.70;;;;;;10381479;28;20606;-68
2022/10/23 09:49:53;;;;;;;1.30;1.20;;;17.50;48.50;;;;;;10379059;28;20229;-68
2022/10/23 09:55:00;;;;;;;1.13;1.03;;;17.70;48.60;;;;;;10382392;28;20322;-68
2022/10/23 10:00:07;;;;;;;2.10;1.00;;;17.80;48.00;;;;;;10382283;28;20280;-68
2022/10/23 10:05:23;;;;;;;1.40;1.30;;;18.00;47.80;;;;;;10379131;28;20237;-68
2022/10/23 10:10:34;;;;;;;1.10;1.10;;;18.10;47.40;;;;;;10377991;28;20255;-68
2022/10/23 10:15:47;;;;;;;1.23;1.07;;;18.30;47.20;;;;;;10376806;28;20676;-69
2022/10/23 10:20:59;;;;;;;1.00;1.00;;;18.50;47.50;;;;;;10378190;28;21129;-68
2022/10/23 10:26:15;;;;;;;1.70;1.10;;;18.70;47.40;;;;;;10382377;28;20292;-69
2022/10/23 10:31:26;;;;;;;1.20;1.10;;;18.90;46.60;;;;;;10366145;28;20734;-68
2022/10/23 10:36:41;;;;;;;1.00;1.00;;;19.20;46.80;;;;;;10368928;28;20234;-68
2022/10/23 10:42:04;;;;;;;1.67;1.10;;;19.30;45.90;;;;;;10370715;28;20233;-69
2022/10/23 10:47:21;;;;;;;1.10;1.10;;;19.60;45.30;;;;;;10373475;28;20237;-68
2022/10/23 10:52:32;;;;;;;1.33;1.07;;;19.80;45.50;;;;;;10365879;28;20236;-68
2022/10/23 10:57:41;;;;;;;0.90;0.90;;;20.00;45.10;;;;;;10372012;28;20264;-69
2022/10/23 11:02:47;;;;;;;1.67;1.00;;;20.20;45.40;;;;;;10366787;28;20233;-69
2022/10/23 11:07:55;;;;;;;0.80;0.80;;;20.40;45.50;;;;;;10375640;28;20241;-69
2022/10/23 11:13:00;;;;;;;1.57;0.90;;;20.60;44.40;;;;;;10370512;28;20267;-69
2022/10/23 11:18:07;;;;;;;1.20;1.10;;;20.70;44.40;;;;;;10372129;28;20237;-69
2022/10/23 11:23:31;;;;;;;1.00;1.00;;;20.80;43.90;;;;;;10375556;28;20240;-69
2022/10/23 11:28:51;;;;;;;2.07;1.10;;;20.90;43.80;;;;;;10379654;28;20237;-69
2022/10/23 11:34:30;;;;;;;2.80;1.10;;;21.00;43.00;;;;;;10372657;28;20292;-69
2022/10/23 11:39:36;;;;;;;1.07;0.97;;;21.00;42.70;;;;;;10369584;28;20234;-69
2022/10/23 11:44:43;;;;;;;0.90;0.90;;;21.10;43.80;;;;;;10370615;28;20275;-69
2022/10/23 11:49:46;;;;;;;1.03;1.00;;;21.10;42.80;;;;;;10366095;28;20229;-69
2022/10/23 11:55:01;;;;;;;0.90;0.90;;;21.20;44.00;;;;;;10369458;28;20232;-69
2022/10/23 12:00:21;;;;;;;1.03;1.03;;;21.20;42.90;;;;;;10369419;28;20225;-69
2022/10/23 12:05:33;;;;;;;0.90;0.90;;;21.30;43.50;;;;;;10368849;28;20241;-69
2022/10/23 12:10:45;;;;;;;1.43;1.10;;;21.30;42.50;;;;;;10374091;28;20234;-69
2022/10/23 12:15:55;;;;;;;1.00;1.00;;;21.40;42.20;;;;;;10366839;28;20238;-69
2022/10/23 12:21:04;;;;;;;0.90;0.90;;;21.40;42.50;;;;;;10376193;28;20236;-70
2022/10/23 12:26:31;;;;;;;1.17;1.00;;;21.40;43.10;;;;;;10375219;28;20238;-70
2022/10/23 12:31:47;;;;;;;1.00;1.00;;;21.50;42.70;;;;;;10379986;28;20256;-69
2022/10/23 12:37:02;;;;;;;0.97;0.97;;;21.50;42.40;;;;;;10374983;28;20234;-69
2022/10/23 12:42:15;;;;;;;0.90;0.90;;;21.60;42.10;;;;;;10379103;28;20318;-69
2022/10/23 12:47:21;;;;;;;0.90;0.90;;;21.60;42.20;;;;;;10372725;28;20300;-69
2022/10/23 12:52:24;;;;;;;0.87;0.87;;;21.60;42.30;;;;;;10383992;28;20587;-69
2022/10/23 12:57:29;;;;;;;0.90;0.90;;;21.60;42.80;;;;;;10379858;28;20254;-68
2022/10/23 13:02:33;;;;;;;0.80;0.80;;;21.70;42.50;;;;;;10378523;28;20719;-68
2022/10/23 13:07:42;;;;;;;1.00;0.90;;;21.70;42.20;;;;;;10381743;28;20246;-68
2022/10/23 13:12:53;;;;;;;0.87;0.83;;;21.70;42.10;;;;;;10378562;28;20232;-68
2022/10/23 13:18:05;;;;;;;1.00;1.00;;;21.70;41.80;;;;;;10390273;28;20234;-68
2022/10/23 13:23:11;;;;;;;1.60;0.80;;;21.70;41.30;;;;;;10382426;28;20335;-69
2022/10/23 13:28:26;;;;;;;1.00;0.90;;;21.70;42.00;;;;;;10387110;28;20230;-69
2022/10/23 13:33:37;;;;;;;0.90;0.90;;;21.70;41.60;;;;;;10389533;28;21173;-68
2022/10/23 13:38:42;;;;;;;1.47;1.00;;;21.70;41.00;;;;;;10386708;28;20249;-68
2022/10/23 13:43:47;;;;;;;1.00;0.93;;;21.70;42.10;;;;;;10385653;28;20237;-68
2022/10/23 13:48:52;;;;;;;0.83;0.83;;;21.70;42.40;;;;;;10386341;28;20650;-68
2022/10/23 13:53:56;;;;;;;1.10;1.10;;;21.70;41.90;;;;;;10385276;28;20233;-68
2022/10/23 13:58:59;;;;;;;1.30;1.20;;;21.70;42.20;;;;;;10383440;28;20642;-68
2022/10/23 14:04:05;;;;;;;1.53;1.10;;;21.80;42.20;;;;;;10384014;28;20237;-69
2022/10/23 14:09:10;;;;;;;1.13;1.13;;;21.80;41.60;;;;;;10383601;28;21173;-68
2022/10/23 14:14:13;;;;;;;1.13;1.03;;;21.80;42.30;;;;;;10384168;28;20232;-68
2022/10/23 14:19:18;;;;;;;1.30;1.20;;;21.80;42.30;;;;;;10384678;28;20724;-68
2022/10/23 14:24:21;;;;;;;1.20;1.10;;;21.90;42.00;;;;;;10385137;28;20708;-68
2022/10/23 14:29:24;;;;;;;1.37;1.27;;;21.90;42.30;;;;;;10384394;28;20234;-68
2022/10/23 14:34:28;;;;;;;1.10;1.10;;;22.00;41.90;;;;;;10384213;28;20241;-68
2022/10/23 14:39:31;;;;;;;1.57;1.10;;;22.00;41.60;;;;;;10384020;28;20237;-68
2022/10/23 14:44:35;;;;;;;1.30;1.23;;;22.00;41.90;;;;;;10382354;28;20259;-66
2022/10/23 14:49:40;;;;;;;1.93;1.77;;;22.00;41.80;;;;;;10386842;28;20284;-69
2022/10/23 14:54:43;;;;;;;1.80;1.70;;;22.00;41.30;;;;;;10380807;28;20242;-69
2022/10/23 14:59:46;;;;;;;1.73;1.53;;;21.90;41.60;;;;;;10381920;28;20229;-69
2022/10/23 15:04:50;;;;;;;1.43;1.30;;;21.90;41.60;;;;;;10378166;28;20241;-69
2022/10/23 15:09:54;;;;;;;1.30;1.20;;;21.90;41.30;;;;;;10386262;28;20652;-68
2022/10/23 15:14:57;;;;;;;2.17;2.07;;;21.90;41.60;;;;;;10382890;28;20237;-68
2022/10/23 15:20:02;;;;;;;2.20;2.10;;;21.80;41.70;;;;;;10370148;28;20238;-68
2022/10/23 15:25:06;;;;;;;3.27;2.97;;;21.90;41.60;;;;;;10369600;28;20230;-67
2022/10/23 15:30:10;;;;;;;2.67;2.40;;;21.80;41.40;;;;;;10369692;28;20237;-68
2022/10/23 15:35:14;;;;;;;2.57;2.00;;;21.80;41.20;;;;;;10355726;28;20229;-68
2022/10/23 15:40:18;;;;;;;1.83;1.73;;;21.80;41.50;;;;;;10365081;28;20233;-68
2022/10/23 15:45:21;;;;;;;2.20;2.00;;;21.70;41.90;;;;;;10360879;28;20249;-68
2022/10/23 15:50:30;;;;;;;1.97;1.87;;;21.70;41.80;;;;;;10374234;28;20238;-67
2022/10/23 15:55:33;;;;;;;2.30;2.10;;;21.60;41.70;;;;;;10380317;28;20284;-68
2022/10/23 16:00:37;;;;;;;2.37;2.00;;;21.60;41.90;;;;;;10379746;28;20292;-68
2022/10/23 16:05:41;;;;;;;1.23;1.23;;;21.50;41.80;;;;;;10373601;28;20555;-68
2022/10/23 16:10:44;;;;;;;2.00;1.23;;;21.40;41.90;;;;;;10379279;28;20640;-67
2022/10/23 16:15:47;;;;;;;1.60;1.50;;;21.30;42.00;;;;;;10374155;28;20280;-68
2022/10/23 16:20:53;;;;;;;1.87;1.40;;;21.20;42.00;;;;;;10376369;28;20617;-67
2022/10/23 16:25:57;;;;;;;2.20;1.40;;;21.10;42.00;;;;;;10377096;28;20396;-68
2022/10/23 16:31:00;;;;;;;2.10;1.30;;;21.00;42.10;;;;;;10373884;28;20225;-67
2022/10/23 16:36:06;;;;;;;1.20;1.20;;;20.90;42.30;;;;;;10373407;28;20240;-68
2022/10/23 16:41:09;;;;;;;1.40;1.30;;;20.80;42.20;;;;;;10378062;28;20640;-68
2022/10/23 16:46:14;;;;;;;1.37;1.20;;;20.70;42.30;;;;;;10374132;28;20237;-68
2022/10/23 16:51:20;;;;;;;2.50;1.60;;;20.60;42.50;;;;;;10375763;28;20238;-68
2022/10/23 16:56:28;;;;;;;1.63;1.50;;;20.50;42.50;;;;;;10370813;28;20230;-67
2022/10/23 17:01:32;;;;;;;2.37;1.80;;;20.40;42.50;;;;;;10365892;28;20249;-68
2022/10/23 17:06:37;;;;;;;2.10;1.97;;;20.40;42.70;;;;;;10368588;28;20234;-68
2022/10/23 17:11:40;;;;;;;2.67;1.70;;;20.30;42.70;;;;;;10370073;28;20280;-67
2022/10/23 17:16:46;;;;;;;1.60;1.50;;;20.20;42.60;;;;;;10367983;28;20233;-67
2022/10/23 17:21:51;;;;;;;2.53;1.70;;;20.10;42.70;;;;;;10369950;28;20241;-67
2022/10/23 17:26:54;;;;;;;1.90;1.67;;;20.00;42.70;;;;;;10373919;28;20240;-68
2022/10/23 17:31:58;;;;;;;1.50;1.40;;;19.90;42.60;;;;;;10378977;28;20264;-68
2022/10/23 17:37:02;;;;;;;1.70;1.60;;;19.80;42.50;;;;;;10377539;28;20230;-68
2022/10/23 17:42:05;;;;;;;2.50;1.40;;;19.80;42.80;;;;;;10375571;28;20235;-68
2022/10/23 17:47:09;;;;;;;1.80;1.47;;;19.70;42.80;;;;;;10374827;28;20241;-68
2022/10/23 17:52:13;;;;;;;3.00;1.83;;;19.60;42.90;;;;;;10377069;28;20217;-68
2022/10/23 17:57:17;;;;;;;2.07;1.77;;;19.50;43.00;;;;;;10377231;28;20238;-68
2022/10/23 18:02:20;;;;;;;4.13;3.80;;;19.50;43.00;;;;;;10378976;28;20234;-68
2022/10/23 18:07:25;;;;;;;3.37;3.07;;;19.40;43.10;;;;;;10366816;28;20260;-68
2022/10/23 18:12:28;;;;;;;3.13;2.90;;;19.40;43.60;;;;;;10375051;28;20682;-67
2022/10/23 18:17:34;;;;;;;2.50;2.30;;;19.30;43.30;;;;;;10380147;28;20245;-68
2022/10/23 18:22:39;;;;;;;4.53;3.00;;;19.20;43.50;;;;;;10374208;28;20242;-68
2022/10/23 18:27:42;;;;;;;3.77;2.90;;;19.10;43.80;;;;;;10369442;28;20297;-68
2022/10/23 18:32:45;;;;;;;5.23;3.80;;;19.00;43.70;;;;;;10373797;28;20221;-68
2022/10/23 18:37:50;;;;;;;3.27;2.97;;;19.00;44.10;;;;;;10366820;28;20336;-68
2022/10/23 18:42:53;;;;;;;3.07;2.50;;;18.90;44.40;;;;;;10362939;28;20244;-68
2022/10/23 18:47:56;;;;;;;3.10;2.80;;;18.80;44.10;;;;;;10370884;28;20271;-68
2022/10/23 18:53:02;;;;;;;3.00;2.73;;;18.80;44.30;;;;;;10368251;28;20722;-68
2022/10/23 18:58:05;;;;;;;3.80;2.83;;;18.70;44.50;;;;;;10367057;28;20761;-68
2022/10/23 19:03:09;;;;;;;3.57;3.03;;;18.70;44.20;;;;;;10366528;28;20234;-68
2022/10/23 19:08:14;;;;;;;4.77;3.20;;;18.60;44.20;;;;;;10372238;28;20222;-68
2022/10/23 19:13:17;;;;;;;3.53;3.23;;;18.50;44.40;;;;;;10366706;28;20225;-68
2022/10/23 19:18:20;;;;;;;4.57;3.43;;;18.50;44.20;;;;;;10366940;28;20238;-68
2022/10/23 19:23:28;;;;;;;6.17;3.37;;;18.40;44.40;;;;;;10364322;28;20233;-68
2022/10/23 19:28:32;;;;;;;3.13;2.83;;;18.40;44.80;;;;;;10377511;28;20241;-68
2022/10/23 19:33:40;;;;;;;2.80;2.60;;;18.30;44.60;;;;;;10370769;28;20236;-68
2022/10/23 19:38:44;;;;;;;2.63;2.43;;;18.30;44.60;;;;;;10373948;28;20245;-67
2022/10/23 19:43:47;;;;;;;2.90;2.70;;;18.30;45.00;;;;;;10382089;28;20240;-68
2022/10/23 19:48:51;;;;;;;4.67;3.03;;;18.30;44.80;;;;;;10374436;28;20693;-68
2022/10/23 19:53:56;;;;;;;3.93;3.53;;;18.20;44.70;;;;;;10383567;28;20232;-68
2022/10/23 19:58:59;;;;;;;4.27;3.50;;;18.20;45.10;;;;;;10384335;28;20240;-67
2022/10/23 20:04:02;;;;;;;4.20;3.27;;;18.10;45.10;;;;;;10379120;28;20321;-68
2022/10/23 20:09:08;;;;;;;5.80;3.40;;;18.10;45.30;;;;;;10383679;28;20237;-68
2022/10/23 20:14:12;;;;;;;4.47;3.70;;;18.10;45.80;;;;;;10386569;28;20603;-68
2022/10/23 20:19:16;;;;;;;4.83;3.00;;;18.10;45.50;;;;;;10380566;28;20298;-68
2022/10/23 20:24:26;;;;;;;3.53;3.20;;;18.10;45.60;;;;;;10385396;28;20233;-68
2022/10/23 20:29:29;;;;;;;3.77;3.47;;;18.00;45.80;;;;;;10380701;28;20241;-67
2022/10/23 20:34:32;;;;;;;4.10;3.40;;;18.00;45.60;;;;;;10383499;28;20968;-68
2022/10/23 20:39:38;;;;;;;3.87;3.47;;;18.00;45.80;;;;;;10382130;28;20835;-68
2022/10/23 20:44:41;;;;;;;4.50;4.10;;;17.90;46.50;;;;;;10383337;28;20248;-68
2022/10/23 20:49:46;;;;;;;6.07;4.50;;;18.00;46.10;;;;;;10382855;28;20237;-68
2022/10/23 20:54:51;;;;;;;4.60;4.20;;;18.00;46.30;;;;;;10380736;28;20245;-68
2022/10/23 20:59:54;;;;;;;4.10;3.70;;;18.00;47.00;;;;;;10376720;28;20707;-68
2022/10/23 21:04:57;;;;;;;24.73;18.10;;;17.90;46.60;;;;;;10378778;28;20241;-68
2022/10/23 21:10:03;;;;;;;14.70;12.17;;;17.90;46.60;;;;;;10377052;28;20249;-68
2022/10/23 21:15:07;;;;;;;7.57;6.80;;;17.90;46.90;;;;;;10379796;28;20230;-68
2022/10/23 21:20:11;;;;;;;5.60;5.03;;;17.90;46.90;;;;;;10389812;28;20715;-68
2022/10/23 21:25:15;;;;;;;5.70;5.20;;;17.90;46.90;;;;;;10383777;28;20240;-68
2022/10/23 21:30:19;;;;;;;4.73;4.33;;;18.00;47.00;;;;;;10382288;28;20238;-68
2022/10/23 21:35:22;;;;;;;5.43;3.93;;;18.00;47.00;;;;;;10384956;28;20238;-68
2022/10/23 21:40:31;;;;;;;3.60;3.30;;;18.00;47.00;;;;;;10381714;28;20229;-68
2022/10/23 21:45:35;;;;;;;4.10;3.80;;;18.00;47.00;;;;;;10386671;28;20234;-68
2022/10/23 21:50:38;;;;;;;3.97;3.67;;;17.90;46.90;;;;;;10379977;28;20696;-68
2022/10/23 21:55:43;;;;;;;4.30;4.00;;;17.90;46.90;;;;;;10381306;28;20265;-68
2022/10/23 22:00:46;;;;;;;4.60;4.20;;;17.90;46.90;;;;;;10382810;28;20225;-68
2022/10/23 22:05:49;;;;;;;6.57;4.23;;;17.90;46.90;;;;;;10381730;28;20268;-68
2022/10/23 22:10:54;;;;;;;4.40;4.00;;;17.90;47.60;;;;;;10380620;28;20233;-68
2022/10/23 22:16:02;;;;;;;4.23;3.93;;;17.90;47.10;;;;;;10381257;28;20241;-68
2022/10/23 22:21:07;;;;;;;3.80;3.30;;;17.90;47.80;;;;;;10380471;28;20234;-68
2022/10/23 22:26:24;;;;;;;3.23;2.90;;;17.80;47.30;;;;;;10383162;28;20541;-68
2022/10/23 22:31:32;;;;;;;3.80;2.20;;;17.90;48.20;;;;;;10379127;28;20229;-68
2022/10/23 22:36:36;;;;;;;4.67;2.00;;;17.90;48.20;;;;;;10382672;28;20586;-68
2022/10/23 22:41:42;;;;;;;5.10;2.20;;;18.00;47.90;;;;;;10378587;28;20226;-68
2022/10/23 22:46:45;;;;;;;1.70;1.60;;;18.20;48.40;;;;;;10379811;28;20243;-68
2022/10/23 22:51:48;;;;;;;5.67;2.17;;;18.30;47.50;;;;;;10379073;28;20242;-68
2022/10/23 22:56:53;;;;;;;3.23;2.23;;;18.50;47.40;;;;;;10381688;28;20226;-68
2022/10/23 23:01:56;;;;;;;3.37;2.20;;;18.70;47.60;;;;;;10382290;28;20241;-68
2022/10/23 23:06:59;;;;;;;6.10;2.20;;;18.80;48.40;;;;;;10383771;28;20291;-68
2022/10/23 23:12:04;;;;;;;3.20;2.23;;;18.90;47.60;;;;;;10382414;28;20233;-69
2022/10/23 23:17:08;;;;;;;2.77;2.20;;;19.00;47.90;;;;;;10376720;28;20241;-69
2022/10/23 23:22:11;;;;;;;2.77;2.37;;;19.00;47.40;;;;;;10380638;28;20281;-68
2022/10/23 23:27:15;;;;;;;4.83;2.67;;;19.00;47.20;;;;;;10381453;28;20238;-68
2022/10/23 23:32:19;;;;;;;6.10;4.23;;;19.00;47.50;;;;;;10379519;28;20226;-68
2022/10/23 23:37:22;;;;;;;5.63;2.90;;;19.00;47.40;;;;;;10380077;28;20292;-68
2022/10/23 23:42:26;;;;;;;3.83;2.10;;;19.00;47.30;;;;;;10383308;28;20727;-68
2022/10/23 23:47:30;;;;;;;5.13;2.10;;;19.00;47.10;;;;;;10381126;28;20241;-68
2022/10/23 23:52:33;;;;;;;4.03;2.20;;;19.00;47.10;;;;;;10383017;28;20275;-68
2022/10/23 23:57:38;;;;;;;4.47;1.80;;;19.00;47.00;;;;;;10383599;28;20300;-68
